Palmdale Regional/USAF Plant 42 Airport
KPMD : now visible

Airfield :











YOU CAN JOIN US ON...

 
LOGIN :

Register | Disclaimer

   EN    FR    IT 

 









Legend :    VFR   Marginal VFR   IFR   Intensive IFR   Very Intensive IFR
Visi :
Ceiling :
>= 8 km
>= 3000ft
5 to 8 km
1000 to 3000 ft
1500m to 5 km
500 to 1000 ft
800 to 1500m
200 to 500 ft
< 800m
< 200 ft
Symbols :   Thunderstorms  Fog  Heavy snow  Heavy precipitations  Wind > 20 kt






- Airport Elevation : 2543 ft
- IATA code : PMD


KPMD - Palmdale Regional/USAF Plant 42

CURRENT METAR :
  • 090953Z AUTO 22021G24KT 10SM BKN025 OVC030 12/07 A2990 RMK AO2 PK WND 21026/0925 SLP112 T01170067

EXPIRED METARs :
  • 090903Z AUTO 24013G16KT 10SM BKN024 BKN032 11/07 A2991 RMK AO2 T01110067
  • 090853Z AUTO 24009KT 210V270 10SM SCT024 BKN032 11/07 A2990 RMK AO2 SLP112 T01110067 56013
  • 090753Z AUTO 23016KT 10SM CLR 11/07 A2991 RMK AO2 PK WND 22027/0714 SLP116 T01110067 401940028

TAF KPMD
Valid from the 09 at 09:00 until the 10 at 06:00 UTC


090833Z 0909/1006 23012KT P6SM BKN022
FM091600 24025G30KT P6SM VCSH BKN025
FM092000 28030G35KT 4SM -RA BR BKN020
FM100400 28020G30KT P6SM SCT020
KZLA FIR / North America



MET'MAP, your aeronautical weather chart ! - Copyright ORBIFLY December 2007 - Disclaimer

ORBIFLY MET'MAP TEAM :

Programming & Development : Alexandra Zaïnal
Concept & original design : Baudouin d'Aumeries
Assistance for programming : Marc-Olivier Méhu
Technical & hardware support : Manuel Goepfert

Contact : metmap@orbifly.com




SOURCES & CREDITS :

   NOAA       Earth
Advisory